sensor_id;sensor_type;location;lat;lon;timestamp;pressure;altitude;pressure_sealevel;temperature;humidity
17855;BME280;9053;53.358;6.382;2023-07-16T00:00:52;100542.59;;;19.09;87.37
17855;BME280;9053;53.358;6.382;2023-07-16T00:03:21;100534.59;;;19.10;87.43
17855;BME280;9053;53.358;6.382;2023-07-16T00:05:54;100534.59;;;19.09;87.36
17855;BME280;9053;53.358;6.382;2023-07-16T00:08:24;100543.50;;;19.08;87.26
17855;BME280;9053;53.358;6.382;2023-07-16T00:10:54;100547.94;;;19.06;87.60
17855;BME280;9053;53.358;6.382;2023-07-16T00:13:25;100553.25;;;19.07;87.48
17855;BME280;9053;53.358;6.382;2023-07-16T00:15:55;100545.25;;;19.07;87.71
17855;BME280;9053;53.358;6.382;2023-07-16T00:18:25;100547.03;;;19.08;87.47
17855;BME280;9053;53.358;6.382;2023-07-16T00:20:58;100547.06;;;19.03;87.41
17855;BME280;9053;53.358;6.382;2023-07-16T00:23:28;100544.41;;;19.00;87.42
17855;BME280;9053;53.358;6.382;2023-07-16T00:25:58;100543.53;;;18.97;87.15
17855;BME280;9053;53.358;6.382;2023-07-16T00:28:29;100546.22;;;18.94;86.97
17855;BME280;9053;53.358;6.382;2023-07-16T00:30:59;100552.44;;;18.91;86.96
17855;BME280;9053;53.358;6.382;2023-07-16T00:33:29;100543.59;;;18.85;86.81
17855;BME280;9053;53.358;6.382;2023-07-16T00:36:01;100548.06;;;18.81;87.04
17855;BME280;9053;53.358;6.382;2023-07-16T00:38:31;100563.16;;;18.80;87.17
17855;BME280;9053;53.358;6.382;2023-07-16T00:41:01;100553.41;;;18.78;87.02
17855;BME280;9053;53.358;6.382;2023-07-16T00:43:31;100559.63;;;18.72;86.72
17855;BME280;9053;53.358;6.382;2023-07-16T00:46:01;100551.63;;;18.65;86.72
17855;BME280;9053;53.358;6.382;2023-07-16T00:48:31;100555.22;;;18.60;86.80
17855;BME280;9053;53.358;6.382;2023-07-16T00:51:04;100554.31;;;18.57;86.85
17855;BME280;9053;53.358;6.382;2023-07-16T00:53:36;100545.47;;;18.52;86.96
17855;BME280;9053;53.358;6.382;2023-07-16T00:56:07;100557.00;;;18.49;86.77
17855;BME280;9053;53.358;6.382;2023-07-16T00:58:37;100547.28;;;18.45;86.80
17855;BME280;9053;53.358;6.382;2023-07-16T01:01:07;100544.63;;;18.42;86.67
17855;BME280;9053;53.358;6.382;2023-07-16T01:03:38;100537.53;;;18.38;86.69
17855;BME280;9053;53.358;6.382;2023-07-16T01:06:14;100541.97;;;18.36;86.79
17855;BME280;9053;53.358;6.382;2023-07-16T01:08:48;100534.88;;;18.36;87.09
17855;BME280;9053;53.358;6.382;2023-07-16T01:11:21;100537.53;;;18.36;87.09
17855;BME280;9053;53.358;6.382;2023-07-16T01:13:52;100538.44;;;18.35;86.92
17855;BME280;9053;53.358;6.382;2023-07-16T01:16:24;100541.09;;;18.32;86.97
17855;BME280;9053;53.358;6.382;2023-07-16T01:18:54;100540.19;;;18.32;87.16
17855;BME280;9053;53.358;6.382;2023-07-16T01:21:32;100538.44;;;18.32;87.38
17855;BME280;9053;53.358;6.382;2023-07-16T01:24:17;100527.78;;;18.31;87.55
17855;BME280;9053;53.358;6.382;2023-07-16T01:27:14;100525.13;;;18.34;87.63
17855;BME280;9053;53.358;6.382;2023-07-16T01:29:51;100514.47;;;18.34;87.86
17855;BME280;9053;53.358;6.382;2023-07-16T01:32:24;100519.81;;;18.37;88.14
17855;BME280;9053;53.358;6.382;2023-07-16T01:34:55;100519.78;;;18.38;88.25
17855;BME280;9053;53.358;6.382;2023-07-16T01:37:25;100519.78;;;18.40;88.39
17855;BME280;9053;53.358;6.382;2023-07-16T01:39:55;100516.22;;;18.43;88.98
17855;BME280;9053;53.358;6.382;2023-07-16T01:42:26;100518.88;;;18.44;89.11
17855;BME280;9053;53.358;6.382;2023-07-16T01:44:58;100520.63;;;18.47;89.09
17855;BME280;9053;53.358;6.382;2023-07-16T01:47:35;100517.97;;;18.47;89.23
17855;BME280;9053;53.358;6.382;2023-07-16T01:50:09;100513.50;;;18.52;89.43
17855;BME280;9053;53.358;6.382;2023-07-16T01:52:40;100519.75;;;18.52;89.50
17855;BME280;9053;53.358;6.382;2023-07-16T01:55:10;100524.16;;;18.53;89.45
17855;BME280;9053;53.358;6.382;2023-07-16T01:57:40;100527.72;;;18.54;89.38
17855;BME280;9053;53.358;6.382;2023-07-16T02:00:13;100524.19;;;18.55;89.46
17855;BME280;9053;53.358;6.382;2023-07-16T02:02:43;100513.50;;;18.53;89.34
17855;BME280;9053;53.358;6.382;2023-07-16T02:05:14;100524.19;;;18.55;89.25
17855;BME280;9053;53.358;6.382;2023-07-16T02:07:44;100517.06;;;18.54;89.25
17855;BME280;9053;53.358;6.382;2023-07-16T02:10:14;100524.16;;;18.53;88.90
17855;BME280;9053;53.358;6.382;2023-07-16T02:12:44;100515.28;;;18.53;89.06
17855;BME280;9053;53.358;6.382;2023-07-16T02:15:16;100504.66;;;18.53;88.95
17855;BME280;9053;53.358;6.382;2023-07-16T02:17:47;100523.28;;;18.51;88.80
17855;BME280;9053;53.358;6.382;2023-07-16T02:20:17;100519.72;;;18.54;88.96
17855;BME280;9053;53.358;6.382;2023-07-16T02:22:47;100515.28;;;18.54;88.52
17855;BME280;9053;53.358;6.382;2023-07-16T02:25:17;100511.75;;;18.52;88.62
17855;BME280;9053;53.358;6.382;2023-07-16T02:27:47;100519.75;;;18.52;88.58
17855;BME280;9053;53.358;6.382;2023-07-16T02:30:20;100520.63;;;18.50;88.74
17855;BME280;9053;53.358;6.382;2023-07-16T02:32:50;100513.53;;;18.50;88.53
17855;BME280;9053;53.358;6.382;2023-07-16T02:35:20;100520.63;;;18.50;88.41
17855;BME280;9053;53.358;6.382;2023-07-16T02:37:50;100517.97;;;18.48;88.29
17855;BME280;9053;53.358;6.382;2023-07-16T02:40:20;100522.41;;;18.49;88.18
17855;BME280;9053;53.358;6.382;2023-07-16T02:42:50;100520.63;;;18.50;88.36
17855;BME280;9053;53.358;6.382;2023-07-16T02:45:22;100518.84;;;18.49;88.27
17855;BME280;9053;53.358;6.382;2023-07-16T02:47:52;100521.53;;;18.50;88.42
17855;BME280;9053;53.358;6.382;2023-07-16T02:50:23;100519.75;;;18.48;88.20
17855;BME280;9053;53.358;6.382;2023-07-16T02:52:53;100517.97;;;18.48;88.13
17855;BME280;9053;53.358;6.382;2023-07-16T02:55:24;100518.00;;;18.45;88.19
17855;BME280;9053;53.358;6.382;2023-07-16T02:57:54;100515.31;;;18.47;88.18
17855;BME280;9053;53.358;6.382;2023-07-16T03:00:27;100519.75;;;18.46;88.35
17855;BME280;9053;53.358;6.382;2023-07-16T03:02:57;100515.31;;;18.45;88.48
17855;BME280;9053;53.358;6.382;2023-07-16T03:05:29;100524.19;;;18.44;88.56
17855;BME280;9053;53.358;6.382;2023-07-16T03:07:59;100523.31;;;18.45;88.67
17855;BME280;9053;53.358;6.382;2023-07-16T03:10:28;100519.78;;;18.43;88.56
17855;BME280;9053;53.358;6.382;2023-07-16T03:12:58;100515.34;;;18.42;88.64
17855;BME280;9053;53.358;6.382;2023-07-16T03:15:31;100516.22;;;18.41;88.85
17855;BME280;9053;53.358;6.382;2023-07-16T03:18:03;100522.44;;;18.43;88.92
17855;BME280;9053;53.358;6.382;2023-07-16T03:20:33;100518.88;;;18.44;88.72
17855;BME280;9053;53.358;6.382;2023-07-16T03:23:03;100518.88;;;18.43;88.61
17855;BME280;9053;53.358;6.382;2023-07-16T03:25:33;100518.91;;;18.40;88.21
17855;BME280;9053;53.358;6.382;2023-07-16T03:28:03;100520.69;;;18.36;88.23
17855;BME280;9053;53.358;6.382;2023-07-16T03:30:36;100509.13;;;18.34;88.32
17855;BME280;9053;53.358;6.382;2023-07-16T03:33:06;100523.34;;;18.33;88.36
17855;BME280;9053;53.358;6.382;2023-07-16T03:35:36;100516.25;;;18.32;88.26
17855;BME280;9053;53.358;6.382;2023-07-16T03:38:06;100527.78;;;18.32;88.56
17855;BME280;9053;53.358;6.382;2023-07-16T03:40:36;100526.88;;;18.32;88.61
17855;BME280;9053;53.358;6.382;2023-07-16T03:43:06;100527.78;;;18.34;88.71
17855;BME280;9053;53.358;6.382;2023-07-16T03:45:39;100533.09;;;18.35;88.55
17855;BME280;9053;53.358;6.382;2023-07-16T03:48:09;100530.44;;;18.35;88.59
17855;BME280;9053;53.358;6.382;2023-07-16T03:50:40;100541.09;;;18.37;88.83
17855;BME280;9053;53.358;6.382;2023-07-16T03:53:11;100536.63;;;18.39;88.63
17855;BME280;9053;53.358;6.382;2023-07-16T03:55:41;100539.28;;;18.39;88.37
17855;BME280;9053;53.358;6.382;2023-07-16T03:58:11;100536.63;;;18.39;88.31
17855;BME280;9053;53.358;6.382;2023-07-16T04:00:43;100537.53;;;18.38;88.43
17855;BME280;9053;53.358;6.382;2023-07-16T04:03:15;100537.53;;;18.40;88.56
17855;BME280;9053;53.358;6.382;2023-07-16T04:05:45;100548.16;;;18.44;88.52
17855;BME280;9053;53.358;6.382;2023-07-16T04:08:15;100555.25;;;18.47;88.60
17855;BME280;9053;53.358;6.382;2023-07-16T04:10:45;100536.59;;;18.47;88.77
17855;BME280;9053;53.358;6.382;2023-07-16T04:13:15;100541.03;;;18.49;88.74
17855;BME280;9053;53.358;6.382;2023-07-16T04:15:47;100544.59;;;18.51;88.82
17855;BME280;9053;53.358;6.382;2023-07-16T04:18:20;100558.78;;;18.53;88.80
17855;BME280;9053;53.358;6.382;2023-07-16T04:20:50;100541.03;;;18.54;88.88
17855;BME280;9053;53.358;6.382;2023-07-16T04:23:20;100541.00;;;18.58;89.04
17855;BME280;9053;53.358;6.382;2023-07-16T04:25:51;100549.00;;;18.63;88.80
17855;BME280;9053;53.358;6.382;2023-07-16T04:28:22;100542.75;;;18.69;88.51
17855;BME280;9053;53.358;6.382;2023-07-16T04:30:55;100549.84;;;18.73;88.39
17855;BME280;9053;53.358;6.382;2023-07-16T04:33:26;100548.06;;;18.78;88.29
17855;BME280;9053;53.358;6.382;2023-07-16T04:35:56;100551.56;;;18.85;88.22
17855;BME280;9053;53.358;6.382;2023-07-16T04:38:26;100549.81;;;18.85;88.13
17855;BME280;9053;53.358;6.382;2023-07-16T04:40:56;100562.22;;;18.89;88.47
17855;BME280;9053;53.358;6.382;2023-07-16T04:43:26;100565.72;;;18.97;88.49
17855;BME280;9053;53.358;6.382;2023-07-16T04:45:59;100562.97;;;19.14;88.61
17855;BME280;9053;53.358;6.382;2023-07-16T04:48:29;100574.38;;;19.39;88.35
17855;BME280;9053;53.358;6.382;2023-07-16T04:50:59;100578.72;;;19.54;87.90
17855;BME280;9053;53.358;6.382;2023-07-16T04:53:29;100567.97;;;19.70;87.48
17855;BME280;9053;53.358;6.382;2023-07-16T04:56:00;100578.53;;;19.83;86.99
17855;BME280;9053;53.358;6.382;2023-07-16T04:58:30;100570.41;;;19.99;86.68
17855;BME280;9053;53.358;6.382;2023-07-16T05:01:03;100573.78;;;20.13;86.24
17855;BME280;9053;53.358;6.382;2023-07-16T05:03:33;100576.31;;;20.31;86.05
17855;BME280;9053;53.358;6.382;2023-07-16T05:06:03;100584.16;;;20.47;85.63
17855;BME280;9053;53.358;6.382;2023-07-16T05:08:33;100583.09;;;20.65;85.21
17855;BME280;9053;53.358;6.382;2023-07-16T05:11:03;100590.00;;;20.81;84.79
17855;BME280;9053;53.358;6.382;2023-07-16T05:13:33;100589.78;;;21.00;84.26
17855;BME280;9053;53.358;6.382;2023-07-16T05:16:06;100597.44;;;21.26;84.08
17855;BME280;9053;53.358;6.382;2023-07-16T05:18:36;100598.13;;;21.43;82.89
17855;BME280;9053;53.358;6.382;2023-07-16T05:21:06;100601.47;;;21.57;82.46
17855;BME280;9053;53.358;6.382;2023-07-16T05:23:36;100607.47;;;21.73;82.11
17855;BME280;9053;53.358;6.382;2023-07-16T05:26:07;100605.66;;;21.74;81.34
17855;BME280;9053;53.358;6.382;2023-07-16T05:28:37;100606.66;;;21.70;81.15
17855;BME280;9053;53.358;6.382;2023-07-16T05:31:09;100607.59;;;21.66;80.85
17855;BME280;9053;53.358;6.382;2023-07-16T05:33:39;100618.44;;;21.56;80.85
17855;BME280;9053;53.358;6.382;2023-07-16T05:36:09;100615.91;;;21.47;81.00
17855;BME280;9053;53.358;6.382;2023-07-16T05:38:41;100622.28;;;21.34;81.14
17855;BME280;9053;53.358;6.382;2023-07-16T05:41:11;100637.56;;;21.24;81.52
17855;BME280;9053;53.358;6.382;2023-07-16T05:43:40;100639.66;;;21.01;82.71
17855;BME280;9053;53.358;6.382;2023-07-16T05:46:13;100647.16;;;20.69;83.91
17855;BME280;9053;53.358;6.382;2023-07-16T05:48:43;100659.88;;;20.40;85.30
17855;BME280;9053;53.358;6.382;2023-07-16T05:51:14;100650.31;;;20.17;86.41
17855;BME280;9053;53.358;6.382;2023-07-16T05:53:47;100650.47;;;19.99;87.41
17855;BME280;9053;53.358;6.382;2023-07-16T05:56:17;100644.34;;;19.86;88.33
17855;BME280;9053;53.358;6.382;2023-07-16T05:58:48;100651.50;;;19.81;89.44
17855;BME280;9053;53.358;6.382;2023-07-16T06:01:21;100657.72;;;19.81;90.45
17855;BME280;9053;53.358;6.382;2023-07-16T06:03:51;100645.22;;;19.85;90.86
17855;BME280;9053;53.358;6.382;2023-07-16T06:06:21;100650.56;;;19.86;91.39
17855;BME280;9053;53.358;6.382;2023-07-16T06:08:51;100653.19;;;19.91;91.79
17855;BME280;9053;53.358;6.382;2023-07-16T06:11:21;100653.09;;;20.00;92.05
17855;BME280;9053;53.358;6.382;2023-07-16T06:13:53;100651.25;;;20.12;92.23
17855;BME280;9053;53.358;6.382;2023-07-16T06:16:25;100655.56;;;20.23;92.10
17855;BME280;9053;53.358;6.382;2023-07-16T06:18:55;100659.09;;;20.31;91.80
17855;BME280;9053;53.358;6.382;2023-07-16T06:21:25;100660.81;;;20.37;91.30
17855;BME280;9053;53.358;6.382;2023-07-16T06:23:55;100662.59;;;20.37;90.78
17855;BME280;9053;53.358;6.382;2023-07-16T06:26:25;100655.50;;;20.32;90.35
17855;BME280;9053;53.358;6.382;2023-07-16T06:28:55;100666.19;;;20.32;90.40
17855;BME280;9053;53.358;6.382;2023-07-16T06:31:28;100660.81;;;20.36;90.74
17855;BME280;9053;53.358;6.382;2023-07-16T06:33:58;100658.97;;;20.41;90.64
17855;BME280;9053;53.358;6.382;2023-07-16T06:36:28;100659.84;;;20.44;90.38
17855;BME280;9053;53.358;6.382;2023-07-16T06:38:57;100667.00;;;20.42;90.12
17855;BME280;9053;53.358;6.382;2023-07-16T06:41:27;100677.69;;;20.41;90.20
17855;BME280;9053;53.358;6.382;2023-07-16T06:43:59;100678.50;;;20.46;90.34
17855;BME280;9053;53.358;6.382;2023-07-16T06:46:31;100679.31;;;20.59;91.11
17855;BME280;9053;53.358;6.382;2023-07-16T06:49:01;100677.38;;;20.74;91.39
17855;BME280;9053;53.358;6.382;2023-07-16T06:51:31;100683.44;;;20.92;91.60
17855;BME280;9053;53.358;6.382;2023-07-16T06:54:01;100677.97;;;21.04;91.66
17855;BME280;9053;53.358;6.382;2023-07-16T06:56:34;100683.13;;;21.16;91.53
17855;BME280;9053;53.358;6.382;2023-07-16T06:59:04;100689.25;;;21.26;91.05
17855;BME280;9053;53.358;6.382;2023-07-16T07:01:36;100682.03;;;21.33;90.62
17855;BME280;9053;53.358;6.382;2023-07-16T07:04:06;100688.22;;;21.36;90.54
17855;BME280;9053;53.358;6.382;2023-07-16T07:06:36;100693.63;;;21.35;90.11
17855;BME280;9053;53.358;6.382;2023-07-16T07:09:07;100697.22;;;21.31;89.89
17855;BME280;9053;53.358;6.382;2023-07-16T07:11:37;100700.81;;;21.30;89.93
17855;BME280;9053;53.358;6.382;2023-07-16T07:14:07;100706.06;;;21.36;89.95
17855;BME280;9053;53.358;6.382;2023-07-16T07:16:40;100698.97;;;21.35;89.41
17855;BME280;9053;53.358;6.382;2023-07-16T07:19:11;100710.59;;;21.32;89.26
17855;BME280;9053;53.358;6.382;2023-07-16T07:21:47;100706.16;;;21.30;89.02
17855;BME280;9053;53.358;6.382;2023-07-16T07:24:17;100715.13;;;21.24;88.58
17855;BME280;9053;53.358;6.382;2023-07-16T07:26:49;100711.66;;;21.16;88.57
17855;BME280;9053;53.358;6.382;2023-07-16T07:29:21;100716.22;;;21.06;88.64
17855;BME280;9053;53.358;6.382;2023-07-16T07:31:54;100710.13;;;20.95;88.73
17855;BME280;9053;53.358;6.382;2023-07-16T07:34:24;100723.69;;;20.77;89.04
17855;BME280;9053;53.358;6.382;2023-07-16T07:36:54;100726.56;;;20.52;89.72
17855;BME280;9053;53.358;6.382;2023-07-16T07:39:26;100722.31;;;20.31;90.75
17855;BME280;9053;53.358;6.382;2023-07-16T07:41:57;100731.31;;;20.15;91.85
17855;BME280;9053;53.358;6.382;2023-07-16T07:44:27;100728.69;;;20.07;92.72
17855;BME280;9053;53.358;6.382;2023-07-16T07:46:59;100737.63;;;20.03;93.62
17855;BME280;9053;53.358;6.382;2023-07-16T07:49:29;100734.97;;;20.01;94.14
17855;BME280;9053;53.358;6.382;2023-07-16T07:52:00;100734.13;;;19.95;94.56
17855;BME280;9053;53.358;6.382;2023-07-16T07:54:31;100738.59;;;19.88;94.86
17855;BME280;9053;53.358;6.382;2023-07-16T07:57:04;100731.50;;;19.85;94.78
17855;BME280;9053;53.358;6.382;2023-07-16T07:59:34;100743.06;;;19.84;94.96
17855;BME280;9053;53.358;6.382;2023-07-16T08:02:07;100747.50;;;19.92;95.09
17855;BME280;9053;53.358;6.382;2023-07-16T08:04:37;100747.47;;;19.96;95.08
17855;BME280;9053;53.358;6.382;2023-07-16T08:07:07;100750.09;;;19.99;94.65
17855;BME280;9053;53.358;6.382;2023-07-16T08:09:37;100755.44;;;19.99;94.41
17855;BME280;9053;53.358;6.382;2023-07-16T08:12:08;100758.06;;;20.05;94.53
17855;BME280;9053;53.358;6.382;2023-07-16T08:14:41;100759.72;;;20.26;95.04
17855;BME280;9053;53.358;6.382;2023-07-16T08:17:13;100762.25;;;20.46;95.01
17855;BME280;9053;53.358;6.382;2023-07-16T08:19:47;100776.31;;;20.71;94.09
17855;BME280;9053;53.358;6.382;2023-07-16T08:22:17;100769.00;;;20.89;93.18
17855;BME280;9053;53.358;6.382;2023-07-16T08:24:47;100762.63;;;21.01;92.22
17855;BME280;9053;53.358;6.382;2023-07-16T08:27:17;100768.81;;;21.07;91.16
17855;BME280;9053;53.358;6.382;2023-07-16T08:29:48;100777.63;;;21.15;90.54
17855;BME280;9053;53.358;6.382;2023-07-16T08:32:20;100787.31;;;21.26;89.69
17855;BME280;9053;53.358;6.382;2023-07-16T08:34:50;100766.72;;;21.34;88.90
17855;BME280;9053;53.358;6.382;2023-07-16T08:37:20;100780.09;;;21.34;88.88
17855;BME280;9053;53.358;6.382;2023-07-16T08:39:51;100778.31;;;21.36;88.73
17855;BME280;9053;53.358;6.382;2023-07-16T08:42:21;100789.84;;;21.43;88.61
17855;BME280;9053;53.358;6.382;2023-07-16T08:44:51;100794.16;;;21.54;88.98
17855;BME280;9053;53.358;6.382;2023-07-16T08:47:25;100791.31;;;21.67;88.83
17855;BME280;9053;53.358;6.382;2023-07-16T08:49:56;100785.81;;;21.79;88.80
17855;BME280;9053;53.358;6.382;2023-07-16T08:52:27;100793.69;;;21.91;88.64
17855;BME280;9053;53.358;6.382;2023-07-16T08:55:00;100792.75;;;21.95;88.22
17855;BME280;9053;53.358;6.382;2023-07-16T08:57:30;100791.88;;;21.93;87.83
17855;BME280;9053;53.358;6.382;2023-07-16T09:00:08;100804.41;;;21.91;87.63
17855;BME280;9053;53.358;6.382;2023-07-16T09:02:45;100804.41;;;21.93;87.46
17855;BME280;9053;53.358;6.382;2023-07-16T09:05:20;100804.50;;;21.82;87.29
17855;BME280;9053;53.358;6.382;2023-07-16T09:08:05;100800.03;;;21.84;87.32
17855;BME280;9053;53.358;6.382;2023-07-16T09:10:36;100800.78;;;21.95;86.52
17855;BME280;9053;53.358;6.382;2023-07-16T09:13:07;100807.84;;;22.01;86.25
17855;BME280;9053;53.358;6.382;2023-07-16T09:15:37;100811.22;;;22.15;86.26
17855;BME280;9053;53.358;6.382;2023-07-16T09:18:19;100818.19;;;22.30;86.05
17855;BME280;9053;53.358;6.382;2023-07-16T09:20:56;100808.13;;;22.44;85.66
17855;BME280;9053;53.358;6.382;2023-07-16T09:23:30;100817.78;;;22.55;84.64
17855;BME280;9053;53.358;6.382;2023-07-16T09:26:00;100810.63;;;22.55;83.80
17855;BME280;9053;53.358;6.382;2023-07-16T09:28:30;100834.78;;;22.54;83.50
17855;BME280;9053;53.358;6.382;2023-07-16T09:31:04;100833.03;;;22.50;83.32
17855;BME280;9053;53.358;6.382;2023-07-16T09:33:37;100835.84;;;22.42;83.26
17855;BME280;9053;53.358;6.382;2023-07-16T09:36:07;100835.09;;;22.32;83.16
17855;BME280;9053;53.358;6.382;2023-07-16T09:38:37;100845.03;;;22.25;83.28
17855;BME280;9053;53.358;6.382;2023-07-16T09:41:07;100841.31;;;22.34;83.27
17855;BME280;9053;53.358;6.382;2023-07-16T09:43:38;100843.13;;;22.35;83.08
17855;BME280;9053;53.358;6.382;2023-07-16T09:46:09;100842.09;;;22.42;83.23
17855;BME280;9053;53.358;6.382;2023-07-16T09:48:41;100845.50;;;22.54;83.07
17855;BME280;9053;53.358;6.382;2023-07-16T09:51:12;100851.56;;;22.65;82.85
17855;BME280;9053;53.358;6.382;2023-07-16T09:53:43;100857.78;;;22.68;82.42
17855;BME280;9053;53.358;6.382;2023-07-16T09:56:15;100855.09;;;22.68;82.43
17855;BME280;9053;53.358;6.382;2023-07-16T09:58:45;100870.25;;;22.71;82.14
17855;BME280;9053;53.358;6.382;2023-07-16T10:01:19;100863.91;;;22.77;82.06
17855;BME280;9053;53.358;6.382;2023-07-16T10:03:53;100849.53;;;22.81;81.90
17855;BME280;9053;53.358;6.382;2023-07-16T10:06:23;100877.09;;;22.89;81.83
17855;BME280;9053;53.358;6.382;2023-07-16T10:08:53;100859.97;;;22.99;81.48
17855;BME280;9053;53.358;6.382;2023-07-16T10:11:24;100868.78;;;23.07;81.29
17855;BME280;9053;53.358;6.382;2023-07-16T10:13:54;100866.03;;;23.10;80.96
17855;BME280;9053;53.358;6.382;2023-07-16T10:16:36;100875.00;;;23.11;80.50
17855;BME280;9053;53.358;6.382;2023-07-16T10:19:09;100880.25;;;23.16;80.40
17855;BME280;9053;53.358;6.382;2023-07-16T10:21:39;100887.41;;;23.17;79.83
17855;BME280;9053;53.358;6.382;2023-07-16T10:24:16;100894.72;;;23.07;79.44
17855;BME280;9053;53.358;6.382;2023-07-16T10:26:46;100892.09;;;23.04;79.28
17855;BME280;9053;53.358;6.382;2023-07-16T10:29:16;100892.19;;;22.98;78.94
17855;BME280;9053;53.358;6.382;2023-07-16T10:31:47;100887.69;;;22.97;79.08
17855;BME280;9053;53.358;6.382;2023-07-16T10:34:22;100879.56;;;23.04;79.05
17855;BME280;9053;53.358;6.382;2023-07-16T10:36:53;100893.78;;;23.09;78.86
17855;BME280;9053;53.358;6.382;2023-07-16T10:39:23;100902.69;;;23.11;78.57
17855;BME280;9053;53.358;6.382;2023-07-16T10:41:53;100912.56;;;23.09;78.17
17855;BME280;9053;53.358;6.382;2023-07-16T10:44:23;100910.00;;;23.03;77.72
17855;BME280;9053;53.358;6.382;2023-07-16T10:46:53;100921.84;;;22.85;77.83
17855;BME280;9053;53.358;6.382;2023-07-16T10:49:29;100930.09;;;22.72;78.11
17855;BME280;9053;53.358;6.382;2023-07-16T10:52:00;100925.81;;;22.60;78.03
17855;BME280;9053;53.358;6.382;2023-07-16T10:54:31;100920.53;;;22.54;78.80
17855;BME280;9053;53.358;6.382;2023-07-16T10:57:01;100924.03;;;22.60;79.21
17855;BME280;9053;53.358;6.382;2023-07-16T10:59:33;100926.50;;;22.73;79.77
17855;BME280;9053;53.358;6.382;2023-07-16T11:02:03;100940.66;;;22.82;79.61
17855;BME280;9053;53.358;6.382;2023-07-16T11:04:39;100940.59;;;22.85;79.07
17855;BME280;9053;53.358;6.382;2023-07-16T11:07:11;100943.34;;;22.84;79.43
17855;BME280;9053;53.358;6.382;2023-07-16T11:09:42;100941.59;;;22.81;79.26
17855;BME280;9053;53.358;6.382;2023-07-16T11:12:17;100938.97;;;22.77;79.04
17855;BME280;9053;53.358;6.382;2023-07-16T11:14:51;100942.56;;;22.76;79.43
17855;BME280;9053;53.358;6.382;2023-07-16T11:17:23;100951.44;;;22.78;79.88
17855;BME280;9053;53.358;6.382;2023-07-16T11:20:00;100941.53;;;22.86;79.91
17855;BME280;9053;53.358;6.382;2023-07-16T11:22:31;100951.25;;;22.92;79.43
17855;BME280;9053;53.358;6.382;2023-07-16T11:25:00;100948.56;;;22.93;78.75
17855;BME280;9053;53.358;6.382;2023-07-16T11:27:32;100943.13;;;22.98;77.87
17855;BME280;9053;53.358;6.382;2023-07-16T11:30:02;100960.13;;;22.95;76.86
17855;BME280;9053;53.358;6.382;2023-07-16T11:32:33;100947.66;;;22.94;76.89
17855;BME280;9053;53.358;6.382;2023-07-16T11:35:08;100959.28;;;22.93;76.73
17855;BME280;9053;53.358;6.382;2023-07-16T11:37:38;100966.41;;;22.97;76.79
17855;BME280;9053;53.358;6.382;2023-07-16T11:40:10;100965.56;;;22.90;76.87
17855;BME280;9053;53.358;6.382;2023-07-16T11:42:40;100972.78;;;22.85;77.12
17855;BME280;9053;53.358;6.382;2023-07-16T11:45:17;100979.00;;;22.87;77.52
17855;BME280;9053;53.358;6.382;2023-07-16T11:47:47;100981.59;;;22.95;77.46
17855;BME280;9053;53.358;6.382;2023-07-16T11:50:21;100986.03;;;23.01;77.24
17855;BME280;9053;53.358;6.382;2023-07-16T11:52:56;100973.50;;;23.01;76.96
17855;BME280;9053;53.358;6.382;2023-07-16T11:55:26;100972.50;;;23.05;76.46
17855;BME280;9053;53.358;6.382;2023-07-16T11:57:56;100984.19;;;23.03;76.16
17855;BME280;9053;53.358;6.382;2023-07-16T12:00:26;100980.59;;;23.04;75.09
17855;BME280;9053;53.358;6.382;2023-07-16T12:02:57;100989.47;;;23.09;74.98
17855;BME280;9053;53.358;6.382;2023-07-16T12:05:29;100993.03;;;23.11;74.59
17855;BME280;9053;53.358;6.382;2023-07-16T12:08:18;100994.72;;;23.17;74.35
17855;BME280;9053;53.358;6.382;2023-07-16T12:10:48;100997.53;;;23.07;73.55
17855;BME280;9053;53.358;6.382;2023-07-16T12:13:19;101010.25;;;22.93;73.23
17855;BME280;9053;53.358;6.382;2023-07-16T12:15:48;101024.75;;;22.77;73.55
17855;BME280;9053;53.358;6.382;2023-07-16T12:18:18;101019.50;;;22.67;73.87
17855;BME280;9053;53.358;6.382;2023-07-16T12:20:51;101018.72;;;22.61;74.13
17855;BME280;9053;53.358;6.382;2023-07-16T12:23:22;101025.94;;;22.54;74.25
17855;BME280;9053;53.358;6.382;2023-07-16T12:25:52;101026.03;;;22.48;74.28
17855;BME280;9053;53.358;6.382;2023-07-16T12:28:22;101026.97;;;22.45;74.81
17855;BME280;9053;53.358;6.382;2023-07-16T12:30:52;101016.25;;;22.42;74.65
17855;BME280;9053;53.358;6.382;2023-07-16T12:33:22;101027.84;;;22.46;74.75
17855;BME280;9053;53.358;6.382;2023-07-16T12:35:58;101034.09;;;22.45;74.93
17855;BME280;9053;53.358;6.382;2023-07-16T12:38:27;101031.44;;;22.43;74.96
17855;BME280;9053;53.358;6.382;2023-07-16T12:40:58;101047.63;;;22.34;75.38
17855;BME280;9053;53.358;6.382;2023-07-16T12:43:28;101052.06;;;22.37;75.75
17855;BME280;9053;53.358;6.382;2023-07-16T12:46:03;101052.00;;;22.40;76.29
17855;BME280;9053;53.358;6.382;2023-07-16T12:48:35;101042.19;;;22.42;76.52
17855;BME280;9053;53.358;6.382;2023-07-16T12:51:11;101051.09;;;22.45;76.56
17855;BME280;9053;53.358;6.382;2023-07-16T12:53:41;101046.59;;;22.44;76.81
17855;BME280;9053;53.358;6.382;2023-07-16T12:56:11;101072.63;;;22.36;76.84
17855;BME280;9053;53.358;6.382;2023-07-16T12:58:41;101074.47;;;22.30;77.65
17855;BME280;9053;53.358;6.382;2023-07-16T13:01:11;101089.78;;;22.15;79.00
17855;BME280;9053;53.358;6.382;2023-07-16T13:03:41;101090.84;;;21.97;80.60
17855;BME280;9053;53.358;6.382;2023-07-16T13:06:13;101085.66;;;21.76;81.98
17855;BME280;9053;53.358;6.382;2023-07-16T13:08:44;101079.56;;;21.58;83.19
17855;BME280;9053;53.358;6.382;2023-07-16T13:11:14;101091.28;;;21.45;84.27
17855;BME280;9053;53.358;6.382;2023-07-16T13:13:44;101093.06;;;21.43;84.89
17855;BME280;9053;53.358;6.382;2023-07-16T13:16:14;101093.06;;;21.45;85.44
17855;BME280;9053;53.358;6.382;2023-07-16T13:18:44;101104.63;;;21.48;85.39
17855;BME280;9053;53.358;6.382;2023-07-16T13:21:17;101099.19;;;21.59;85.53